createdAt,value
2023-02-23T00:00:21.205Z,87.80
2023-02-23T00:02:49.673Z,87.80
2023-02-23T00:05:17.153Z,87.80
2023-02-23T00:07:44.858Z,87.90
2023-02-23T00:10:14.322Z,87.80
2023-02-23T00:12:41.580Z,87.80
2023-02-23T00:15:08.643Z,87.80
2023-02-23T00:17:36.819Z,87.90
2023-02-23T00:20:08.031Z,87.90
2023-02-23T00:22:34.790Z,87.90
2023-02-23T00:25:03.205Z,87.90
2023-02-23T00:27:31.294Z,87.80
2023-02-23T00:29:57.955Z,87.80
2023-02-23T00:32:24.981Z,87.80
2023-02-23T00:34:52.322Z,87.80
2023-02-23T00:37:19.614Z,87.80
2023-02-23T00:39:46.328Z,87.80
2023-02-23T00:42:13.868Z,87.90
2023-02-23T00:44:42.296Z,87.80
2023-02-23T00:47:09.177Z,87.80
2023-02-23T00:49:35.895Z,87.80
2023-02-23T00:52:07.317Z,87.80
2023-02-23T00:54:34.083Z,87.90
2023-02-23T00:57:00.734Z,87.90
2023-02-23T00:59:29.691Z,87.80
2023-02-23T01:01:58.023Z,87.80
2023-02-23T01:04:24.707Z,87.90
2023-02-23T01:06:51.887Z,87.90
2023-02-23T01:09:28.481Z,87.90
2023-02-23T01:11:56.597Z,87.90
2023-02-23T01:14:24.314Z,87.90
2023-02-23T01:16:51.401Z,87.90
2023-02-23T01:19:22.066Z,87.90
2023-02-23T01:21:48.819Z,87.90
2023-02-23T01:24:15.789Z,87.90
2023-02-23T01:26:43.746Z,88.00
2023-02-23T01:29:11.749Z,87.90
2023-02-23T01:31:39.329Z,87.90
2023-02-23T01:34:07.056Z,87.90
2023-02-23T01:36:36.548Z,87.90
2023-02-23T01:39:06.335Z,88.00
2023-02-23T01:41:35.529Z,88.00
2023-02-23T01:44:06.179Z,87.90
2023-02-23T01:46:33.848Z,88.00
2023-02-23T01:49:01.071Z,88.00
2023-02-23T01:51:30.656Z,88.00
2023-02-23T01:54:02.045Z,88.00
2023-02-23T01:56:31.513Z,88.00
2023-02-23T01:58:59.406Z,88.00
2023-02-23T02:01:27.726Z,88.00
2023-02-23T02:03:56.543Z,88.00
2023-02-23T02:06:24.966Z,88.10
2023-02-23T02:08:54.802Z,88.10
2023-02-23T02:11:41.044Z,88.10
2023-02-23T02:14:13.126Z,88.10
2023-02-23T02:17:02.534Z,88.10
2023-02-23T02:20:01.328Z,88.20
2023-02-23T02:22:42.520Z,88.20
2023-02-23T02:25:19.762Z,88.20
2023-02-23T02:28:03.894Z,88.20
2023-02-23T02:30:39.818Z,88.20
2023-02-23T02:33:11.873Z,88.20
2023-02-23T02:35:46.874Z,88.20
2023-02-23T02:38:40.443Z,88.20
2023-02-23T02:41:13.649Z,88.20
2023-02-23T02:43:46.934Z,88.20
2023-02-23T02:46:22.873Z,88.20
2023-02-23T02:48:55.591Z,88.20
2023-02-23T02:51:24.018Z,88.20
2023-02-23T02:53:55.909Z,88.20
2023-02-23T02:56:25.253Z,88.20
2023-02-23T02:59:01.541Z,88.30
2023-02-23T03:01:49.088Z,88.20
2023-02-23T03:04:39.098Z,88.20
2023-02-23T03:07:28.376Z,88.30
2023-02-23T03:13:50.894Z,88.30
2023-02-23T03:16:41.832Z,88.30
2023-02-23T03:19:33.355Z,88.30
2023-02-23T03:22:44.470Z,88.30
2023-02-23T03:25:44.609Z,88.40
2023-02-23T03:28:33.839Z,88.40
2023-02-23T03:31:25.548Z,88.40
2023-02-23T03:34:17.879Z,88.20
2023-02-23T03:37:05.810Z,88.30
2023-02-23T03:39:53.830Z,88.30
2023-02-23T03:42:42.616Z,88.40
2023-02-23T03:45:30.128Z,88.30
2023-02-23T03:48:18.004Z,88.40
2023-02-23T03:51:05.699Z,88.40
2023-02-23T03:53:54.025Z,88.40
2023-02-23T03:56:41.897Z,88.40
2023-02-23T03:59:32.631Z,88.40
2023-02-23T04:02:19.214Z,88.40
2023-02-23T04:05:06.542Z,88.40
2023-02-23T04:07:55.476Z,88.50
2023-02-23T04:10:55.315Z,88.40
2023-02-23T04:13:24.778Z,88.40
2023-02-23T04:15:52.855Z,88.50
2023-02-23T04:18:22.481Z,88.40
2023-02-23T04:20:50.589Z,88.50
2023-02-23T04:23:18.283Z,88.40
2023-02-23T04:25:45.062Z,88.50
2023-02-23T04:28:14.110Z,88.50
2023-02-23T04:30:41.036Z,88.60
2023-02-23T04:33:07.880Z,88.60
2023-02-23T04:35:34.951Z,88.50
2023-02-23T04:38:03.408Z,88.60
2023-02-23T04:40:30.502Z,88.50
2023-02-23T04:43:03.340Z,88.60
2023-02-23T04:45:31.012Z,88.60
2023-02-23T04:47:57.703Z,88.60
2023-02-23T04:53:15.984Z,88.60
2023-02-23T04:55:42.679Z,88.60
2023-02-23T04:58:19.120Z,88.60
2023-02-23T05:00:46.078Z,88.60
2023-02-23T05:03:13.017Z,88.60
2023-02-23T05:05:39.771Z,88.60
2023-02-23T05:08:06.489Z,88.60
2023-02-23T05:10:34.789Z,88.60
2023-02-23T05:13:01.655Z,88.60
2023-02-23T05:15:28.396Z,88.60
2023-02-23T05:17:55.842Z,88.60
2023-02-23T05:20:22.533Z,88.70
2023-02-23T05:22:49.291Z,88.70
2023-02-23T05:25:16.822Z,88.60
2023-02-23T05:27:45.000Z,88.60
2023-02-23T05:30:11.991Z,88.70
2023-02-23T05:32:39.114Z,88.70
2023-02-23T05:35:06.156Z,88.70
2023-02-23T05:37:36.298Z,88.70
2023-02-23T05:40:04.770Z,88.70
2023-02-23T05:42:31.534Z,88.70
2023-02-23T05:44:59.906Z,88.70
2023-02-23T05:47:26.601Z,88.70
2023-02-23T05:49:53.372Z,88.70
2023-02-23T05:52:20.095Z,88.70
2023-02-23T05:54:47.341Z,88.70
2023-02-23T05:57:14.108Z,88.80
2023-02-23T05:59:41.656Z,88.80
2023-02-23T06:02:09.787Z,88.70
2023-02-23T06:04:36.557Z,88.70
2023-02-23T06:07:11.297Z,88.80
2023-02-23T06:09:37.982Z,88.80
2023-02-23T06:12:05.352Z,88.80
2023-02-23T06:14:33.509Z,88.80
2023-02-23T06:17:01.008Z,88.80
2023-02-23T06:19:31.836Z,88.80
2023-02-23T06:21:58.559Z,88.80
2023-02-23T06:24:25.782Z,88.80
2023-02-23T06:26:52.498Z,88.80
2023-02-23T06:29:22.889Z,88.80
2023-02-23T06:31:49.761Z,88.80
2023-02-23T06:34:16.673Z,88.80
2023-02-23T06:36:45.005Z,88.80
2023-02-23T06:39:11.934Z,88.80
2023-02-23T06:41:38.821Z,88.80
2023-02-23T06:44:09.307Z,88.80
2023-02-23T06:46:36.432Z,88.80
2023-02-23T06:49:03.783Z,88.80
2023-02-23T06:51:30.981Z,88.90
2023-02-23T06:53:59.045Z,88.90
2023-02-23T06:56:29.184Z,88.90
2023-02-23T06:58:56.832Z,88.90
2023-02-23T07:01:24.184Z,88.80
2023-02-23T07:03:51.174Z,88.90
2023-02-23T07:06:17.896Z,88.80
2023-02-23T07:08:45.439Z,88.90
2023-02-23T07:11:15.849Z,88.90
2023-02-23T07:13:42.764Z,88.90
2023-02-23T07:16:09.780Z,88.90
2023-02-23T07:18:36.626Z,89.00
2023-02-23T07:21:03.747Z,89.00
2023-02-23T07:23:31.337Z,89.00
2023-02-23T07:26:06.609Z,89.00
2023-02-23T07:28:34.807Z,89.00
2023-02-23T07:31:01.577Z,89.00
2023-02-23T07:33:28.317Z,89.00
2023-02-23T07:35:55.065Z,89.00
2023-02-23T07:38:24.457Z,89.00
2023-02-23T07:40:51.530Z,89.00
2023-02-23T07:43:21.370Z,88.90
2023-02-23T07:45:49.621Z,89.00
2023-02-23T07:48:19.191Z,89.00
2023-02-23T07:50:45.936Z,89.10
2023-02-23T07:53:12.979Z,89.00
2023-02-23T07:55:40.264Z,89.10
2023-02-23T07:58:07.493Z,89.10
2023-02-23T08:00:34.354Z,89.10
2023-02-23T08:03:02.649Z,89.10
2023-02-23T08:05:29.826Z,89.10
2023-02-23T08:07:57.956Z,89.10
2023-02-23T08:10:25.075Z,89.10
2023-02-23T08:12:51.917Z,89.00
2023-02-23T08:15:18.843Z,89.00
2023-02-23T08:17:45.604Z,88.90
2023-02-23T08:20:13.778Z,89.00
2023-02-23T08:22:49.308Z,89.00
2023-02-23T08:25:16.478Z,89.10
2023-02-23T08:27:43.117Z,89.10
2023-02-23T08:30:10.694Z,89.00
2023-02-23T08:32:37.825Z,89.00
2023-02-23T08:35:04.986Z,88.90
2023-02-23T08:37:33.839Z,88.90
2023-02-23T08:40:01.030Z,88.90
2023-02-23T08:42:28.165Z,88.90
2023-02-23T08:44:55.360Z,88.90
2023-02-23T08:47:23.518Z,89.00
2023-02-23T08:49:50.661Z,88.80
2023-02-23T08:52:17.502Z,88.90
2023-02-23T08:54:45.780Z,89.00
2023-02-23T08:57:12.860Z,89.10
2023-02-23T08:59:41.245Z,89.10
2023-02-23T09:02:11.707Z,89.10
2023-02-23T09:04:38.422Z,88.90
2023-02-23T09:07:05.200Z,88.90
2023-02-23T09:09:34.190Z,88.90
2023-02-23T09:12:02.643Z,89.00
2023-02-23T09:14:30.183Z,88.90
2023-02-23T09:16:56.846Z,88.90
2023-02-23T09:19:23.669Z,89.00
2023-02-23T09:21:54.777Z,88.90
2023-02-23T09:24:21.796Z,89.00
2023-02-23T09:26:48.520Z,88.90
2023-02-23T09:29:16.839Z,89.00
2023-02-23T09:31:43.691Z,89.00
2023-02-23T09:34:12.655Z,89.00
2023-02-23T09:36:39.728Z,89.00
2023-02-23T09:39:06.365Z,89.10
2023-02-23T09:41:56.110Z,89.00
2023-02-23T09:44:29.398Z,89.00
2023-02-23T09:47:01.981Z,88.80
2023-02-23T09:49:33.460Z,88.90
2023-02-23T09:52:01.930Z,88.80
2023-02-23T09:54:30.299Z,88.80
2023-02-23T09:57:01.569Z,88.80
2023-02-23T09:59:30.187Z,88.80
2023-02-23T10:02:02.212Z,88.80
2023-02-23T10:04:31.117Z,88.80
2023-02-23T10:06:59.973Z,88.80
2023-02-23T10:09:31.323Z,88.80
2023-02-23T10:12:01.404Z,88.70
2023-02-23T10:14:46.378Z,88.60
2023-02-23T10:17:19.083Z,88.60
2023-02-23T10:19:56.883Z,88.50
2023-02-23T10:22:24.609Z,88.50
2023-02-23T10:24:54.259Z,88.50
2023-02-23T10:27:21.700Z,88.60
2023-02-23T10:29:51.653Z,88.50
2023-02-23T10:32:22.283Z,88.50
2023-02-23T10:34:50.020Z,88.40
2023-02-23T10:37:17.519Z,88.40
2023-02-23T10:39:44.334Z,88.40
2023-02-23T10:42:14.765Z,88.40
2023-02-23T10:44:43.207Z,88.50
2023-02-23T10:47:15.614Z,88.40
2023-02-23T10:49:43.904Z,88.30
2023-02-23T10:52:13.633Z,88.20
2023-02-23T10:54:44.681Z,88.30
2023-02-23T10:57:14.171Z,88.20
2023-02-23T10:59:42.355Z,88.00
2023-02-23T11:02:22.962Z,87.90
2023-02-23T11:04:53.163Z,87.90
2023-02-23T11:07:22.251Z,88.00
2023-02-23T11:09:51.346Z,87.90
2023-02-23T11:12:25.499Z,87.80
2023-02-23T11:14:53.754Z,87.80
2023-02-23T11:17:34.500Z,87.70
2023-02-23T11:20:02.578Z,87.60
2023-02-23T11:22:34.719Z,87.50
2023-02-23T11:25:05.631Z,87.40
2023-02-23T11:27:32.745Z,87.30
2023-02-23T11:30:03.285Z,87.20
2023-02-23T11:32:32.523Z,87.20
2023-02-23T11:35:13.130Z,87.10
2023-02-23T11:37:41.679Z,87.20
2023-02-23T11:40:18.837Z,87.10
2023-02-23T11:42:53.435Z,86.90
2023-02-23T11:45:24.388Z,87.00
2023-02-23T11:47:53.591Z,87.10
2023-02-23T11:50:22.068Z,87.10
2023-02-23T11:52:50.908Z,87.20
2023-02-23T11:55:19.510Z,87.20
2023-02-23T11:57:49.442Z,87.10
2023-02-23T12:00:22.463Z,87.10
2023-02-23T12:02:53.260Z,87.30
2023-02-23T12:05:23.965Z,87.30
2023-02-23T12:07:54.418Z,87.30
2023-02-23T12:10:24.379Z,87.20
2023-02-23T12:12:56.020Z,87.30
2023-02-23T12:15:26.483Z,87.40
2023-02-23T12:17:55.859Z,87.30
2023-02-23T12:20:25.688Z,87.30
2023-02-23T12:22:54.604Z,87.40
2023-02-23T12:25:24.257Z,87.40
2023-02-23T12:27:53.942Z,87.40
2023-02-23T12:30:24.685Z,87.30
2023-02-23T12:32:54.755Z,87.20
2023-02-23T12:35:24.022Z,87.20
2023-02-23T12:37:54.972Z,87.10
2023-02-23T12:40:24.427Z,87.10
2023-02-23T12:42:57.099Z,87.10
2023-02-23T12:45:28.178Z,87.00
2023-02-23T12:47:59.791Z,87.00
2023-02-23T12:50:28.767Z,86.90
2023-02-23T12:52:59.757Z,86.90
2023-02-23T12:55:31.339Z,86.80
2023-02-23T12:58:03.549Z,86.70
2023-02-23T13:00:37.386Z,86.70
2023-02-23T13:03:22.207Z,86.60
2023-02-23T13:05:51.220Z,86.80
2023-02-23T13:08:37.224Z,86.90
2023-02-23T13:11:14.440Z,86.90
2023-02-23T13:13:46.831Z,86.80
2023-02-23T13:16:20.259Z,86.70
2023-02-23T13:18:49.975Z,86.50
2023-02-23T13:21:21.101Z,86.40
2023-02-23T13:23:55.164Z,86.30
2023-02-23T13:26:27.464Z,86.30
2023-02-23T13:28:56.680Z,86.30
2023-02-23T13:31:25.176Z,86.20
2023-02-23T13:33:55.867Z,86.20
2023-02-23T13:36:23.589Z,86.10
2023-02-23T13:39:17.800Z,85.90
2023-02-23T13:41:48.890Z,85.80
2023-02-23T13:44:18.702Z,85.80
2023-02-23T13:46:48.200Z,85.70
2023-02-23T13:49:20.583Z,85.70
2023-02-23T13:51:49.560Z,85.80
2023-02-23T13:54:24.932Z,85.80
2023-02-23T13:56:54.757Z,85.80
2023-02-23T13:59:22.494Z,85.90
2023-02-23T14:01:50.339Z,85.90
2023-02-23T14:04:24.619Z,85.80
2023-02-23T14:06:57.715Z,85.80
2023-02-23T14:09:29.477Z,85.90
2023-02-23T14:12:02.416Z,85.90
2023-02-23T14:14:44.360Z,85.80
2023-02-23T14:17:31.907Z,85.90
2023-02-23T14:20:31.425Z,86.00
2023-02-23T14:23:14.988Z,85.90
2023-02-23T14:25:50.150Z,86.00
2023-02-23T14:28:24.473Z,85.90
2023-02-23T14:30:59.740Z,85.90
2023-02-23T14:33:34.598Z,86.00
2023-02-23T14:36:01.826Z,86.10
2023-02-23T14:38:45.633Z,86.10
2023-02-23T14:41:21.071Z,86.10
2023-02-23T14:43:50.644Z,86.10
2023-02-23T14:46:19.873Z,86.20
2023-02-23T14:49:04.196Z,86.10
2023-02-23T14:51:37.017Z,85.80
2023-02-23T14:54:13.989Z,85.90
2023-02-23T14:56:47.675Z,86.00
2023-02-23T14:59:18.032Z,86.00
2023-02-23T15:01:44.736Z,86.00
2023-02-23T15:04:12.268Z,86.10
2023-02-23T15:06:42.361Z,86.10
2023-02-23T15:09:15.741Z,86.10
2023-02-23T15:11:44.139Z,86.00
2023-02-23T15:14:26.937Z,86.10
2023-02-23T15:16:56.079Z,86.00
2023-02-23T15:19:27.087Z,86.00
2023-02-23T15:21:55.098Z,85.80
2023-02-23T15:24:26.970Z,85.70
2023-02-23T15:26:56.670Z,85.70
2023-02-23T15:29:26.298Z,85.50
2023-02-23T15:31:57.464Z,85.70
2023-02-23T15:34:25.461Z,85.40
2023-02-23T15:36:54.051Z,85.60
2023-02-23T15:39:25.727Z,85.60
2023-02-23T15:41:52.414Z,85.70
2023-02-23T15:44:22.795Z,85.80
2023-02-23T15:46:54.873Z,85.90
2023-02-23T15:49:24.622Z,86.00
2023-02-23T15:51:53.790Z,85.90
2023-02-23T15:54:22.595Z,85.90
2023-02-23T15:56:49.821Z,86.00
2023-02-23T15:59:20.800Z,86.20
2023-02-23T16:01:47.804Z,86.10
2023-02-23T16:04:18.769Z,86.10
2023-02-23T16:06:51.157Z,86.10
2023-02-23T16:09:25.504Z,86.20
2023-02-23T16:11:54.182Z,86.40
2023-02-23T16:14:22.614Z,86.50
2023-02-23T16:17:08.385Z,86.30
2023-02-23T16:19:41.893Z,86.30
2023-02-23T16:22:16.926Z,86.40
2023-02-23T16:24:43.644Z,86.50
2023-02-23T16:27:11.436Z,86.50
2023-02-23T16:29:41.887Z,86.40
2023-02-23T16:32:11.790Z,86.50
2023-02-23T16:34:48.364Z,86.40
2023-02-23T16:37:19.984Z,86.50
2023-02-23T16:39:48.245Z,86.50
2023-02-23T16:42:21.092Z,86.50
2023-02-23T16:44:48.197Z,86.50
2023-02-23T16:47:48.151Z,86.50
2023-02-23T16:50:20.352Z,86.50
2023-02-23T16:52:51.927Z,86.50
2023-02-23T16:55:19.698Z,86.60
2023-02-23T16:57:51.766Z,86.50
2023-02-23T17:00:23.639Z,86.50
2023-02-23T17:02:50.917Z,86.40
2023-02-23T17:05:25.939Z,86.40
2023-02-23T17:07:52.861Z,86.50
2023-02-23T17:10:26.578Z,86.60
2023-02-23T17:12:54.355Z,86.70
2023-02-23T17:15:21.679Z,86.60
2023-02-23T17:17:48.940Z,86.60
2023-02-23T17:20:21.415Z,86.60
2023-02-23T17:22:49.998Z,86.60
2023-02-23T17:25:17.115Z,86.70
2023-02-23T17:27:44.339Z,86.70
2023-02-23T17:30:11.796Z,86.50
2023-02-23T17:32:39.351Z,86.60
2023-02-23T17:35:07.210Z,86.50
2023-02-23T17:37:38.549Z,86.50
2023-02-23T17:40:08.766Z,86.50
2023-02-23T17:42:35.593Z,86.50
2023-02-23T17:45:06.551Z,86.20
2023-02-23T17:47:33.840Z,86.20
2023-02-23T17:50:01.506Z,86.30
2023-02-23T17:52:30.337Z,86.20
2023-02-23T17:54:59.408Z,86.10
2023-02-23T17:57:30.397Z,86.10
2023-02-23T17:59:57.830Z,86.20
2023-02-23T18:02:24.604Z,86.00
2023-02-23T18:04:52.068Z,86.00
2023-02-23T18:07:19.199Z,85.80
2023-02-23T18:09:49.968Z,85.80
2023-02-23T18:12:17.863Z,85.90
2023-02-23T18:14:48.788Z,85.80
2023-02-23T18:17:16.386Z,85.90
2023-02-23T18:19:43.069Z,85.70
2023-02-23T18:22:13.834Z,85.90
2023-02-23T18:24:41.965Z,85.80
2023-02-23T18:27:08.770Z,85.60
2023-02-23T18:29:35.930Z,85.60
2023-02-23T18:32:05.532Z,85.40
2023-02-23T18:34:42.984Z,85.60
2023-02-23T18:37:10.379Z,85.60
2023-02-23T18:39:37.200Z,85.70
2023-02-23T18:42:04.679Z,85.60
2023-02-23T18:44:34.784Z,85.60
2023-02-23T18:47:02.390Z,85.50
2023-02-23T18:49:33.045Z,85.50
2023-02-23T18:52:00.238Z,85.40
2023-02-23T18:54:27.853Z,85.20
2023-02-23T18:56:55.816Z,85.30
2023-02-23T18:59:23.262Z,85.40
2023-02-23T19:01:50.398Z,85.30
2023-02-23T19:04:17.422Z,85.20
2023-02-23T19:06:46.157Z,85.30
2023-02-23T19:09:14.426Z,85.00
2023-02-23T19:11:42.014Z,85.20
2023-02-23T19:14:10.535Z,85.20
2023-02-23T19:16:39.876Z,85.20
2023-02-23T19:19:07.294Z,85.10
2023-02-23T19:21:34.556Z,85.20
2023-02-23T19:24:02.912Z,85.10
2023-02-23T19:26:30.557Z,85.20
2023-02-23T19:28:57.632Z,85.10
2023-02-23T19:31:26.272Z,85.20
2023-02-23T19:33:53.482Z,85.30
2023-02-23T19:36:21.329Z,85.20
2023-02-23T19:38:49.027Z,85.20
2023-02-23T19:41:19.667Z,85.20
2023-02-23T19:43:46.965Z,85.20
2023-02-23T19:46:16.381Z,85.20
2023-02-23T19:48:44.827Z,85.20
2023-02-23T19:51:12.555Z,85.20
2023-02-23T19:53:39.772Z,85.20
2023-02-23T19:56:07.908Z,85.20
2023-02-23T19:58:42.919Z,85.10
2023-02-23T20:01:10.667Z,85.10
2023-02-23T20:03:39.662Z,85.10
2023-02-23T20:06:07.230Z,85.20
2023-02-23T20:08:34.066Z,85.20
2023-02-23T20:11:00.762Z,85.20
2023-02-23T20:13:30.811Z,85.10
2023-02-23T20:16:02.797Z,85.10
2023-02-23T20:18:29.645Z,85.10
2023-02-23T20:20:56.360Z,85.10
2023-02-23T20:23:23.102Z,85.00
2023-02-23T20:25:50.055Z,85.10
2023-02-23T20:28:16.963Z,85.10
2023-02-23T20:30:46.458Z,85.10
2023-02-23T20:33:15.539Z,85.10
2023-02-23T20:35:42.367Z,85.10
2023-02-23T20:38:09.464Z,85.10
2023-02-23T20:40:36.659Z,85.20
2023-02-23T20:43:03.369Z,85.20
2023-02-23T20:45:33.104Z,85.20
2023-02-23T20:48:00.120Z,85.30
2023-02-23T20:50:33.150Z,85.30
2023-02-23T20:53:02.349Z,85.30
2023-02-23T20:55:29.717Z,85.40
2023-02-23T20:57:56.640Z,85.40
2023-02-23T21:00:31.907Z,85.50
2023-02-23T21:02:59.290Z,85.50
2023-02-23T21:05:26.751Z,85.60
2023-02-23T21:07:57.299Z,85.70
2023-02-23T21:10:29.472Z,85.70
2023-02-23T21:12:56.346Z,85.70
2023-02-23T21:15:25.509Z,85.80
2023-02-23T21:17:52.420Z,85.70
2023-02-23T21:20:20.935Z,85.70
2023-02-23T21:22:51.014Z,85.70
2023-02-23T21:25:20.499Z,85.70
2023-02-23T21:27:47.843Z,85.60
2023-02-23T21:30:19.504Z,85.50
2023-02-23T21:32:52.984Z,85.50
2023-02-23T21:35:20.135Z,85.50
2023-02-23T21:37:47.139Z,85.40
2023-02-23T21:40:18.059Z,85.40
2023-02-23T21:42:47.653Z,85.40
2023-02-23T21:45:14.677Z,85.30
2023-02-23T21:47:44.904Z,85.30
2023-02-23T21:50:14.346Z,85.30
2023-02-23T21:52:44.074Z,85.30
2023-02-23T21:55:20.759Z,85.30
2023-02-23T21:57:49.845Z,85.30
2023-02-23T22:00:16.666Z,85.30
2023-02-23T22:02:46.501Z,85.20
2023-02-23T22:05:14.948Z,85.20
2023-02-23T22:07:46.826Z,85.20
2023-02-23T22:10:15.542Z,85.20
2023-02-23T22:12:42.375Z,85.20
2023-02-23T22:15:11.756Z,85.20
2023-02-23T22:17:38.707Z,85.30
2023-02-23T22:20:07.433Z,85.20
2023-02-23T22:22:36.246Z,85.20
2023-02-23T22:25:03.959Z,85.20
2023-02-23T22:27:30.828Z,85.20
2023-02-23T22:30:01.903Z,85.20
2023-02-23T22:32:33.513Z,85.30
2023-02-23T22:35:00.573Z,85.30
2023-02-23T22:37:29.900Z,85.30
2023-02-23T22:39:57.710Z,85.30
2023-02-23T22:42:24.585Z,85.30
2023-02-23T22:44:51.810Z,85.40
2023-02-23T22:47:18.539Z,85.40
2023-02-23T22:49:47.817Z,85.40
2023-02-23T22:52:14.702Z,85.40
2023-02-23T22:54:46.516Z,85.40
2023-02-23T22:57:13.518Z,85.40
2023-02-23T22:59:40.607Z,85.50
2023-02-23T23:02:07.472Z,85.40
2023-02-23T23:04:34.776Z,85.50
2023-02-23T23:07:03.009Z,85.50
2023-02-23T23:09:30.287Z,85.50
2023-02-23T23:11:57.092Z,85.50
2023-02-23T23:14:24.593Z,85.50
2023-02-23T23:16:51.535Z,85.50
2023-02-23T23:19:19.374Z,85.50
2023-02-23T23:21:46.321Z,85.50
2023-02-23T23:24:15.585Z,85.50
2023-02-23T23:26:44.378Z,85.50
2023-02-23T23:29:15.734Z,85.60
2023-02-23T23:31:45.451Z,85.50
2023-02-23T23:34:15.824Z,85.50
2023-02-23T23:36:46.222Z,85.60
2023-02-23T23:39:16.388Z,85.60
2023-02-23T23:41:43.908Z,85.60
2023-02-23T23:44:10.997Z,85.60
2023-02-23T23:46:38.937Z,85.60
2023-02-23T23:49:09.908Z,85.70
2023-02-23T23:51:39.200Z,85.60
2023-02-23T23:54:07.574Z,85.70
2023-02-23T23:56:37.511Z,85.70
2023-02-23T23:59:07.250Z,85.80
